sensor_id;sensor_type;location;lat;lon;timestamp;P1;durP1;ratioP1;P2;durP2;ratioP2
15240;SDS011;7723;52.170;9.978;2023-02-03T00:00:47;7.18;;;4.38;;
15240;SDS011;7723;52.170;9.978;2023-02-03T00:03:15;9.18;;;6.00;;
15240;SDS011;7723;52.170;9.978;2023-02-03T00:05:42;9.68;;;5.50;;
15240;SDS011;7723;52.170;9.978;2023-02-03T00:08:11;9.73;;;5.65;;
15240;SDS011;7723;52.170;9.978;2023-02-03T00:10:39;8.93;;;5.85;;
15240;SDS011;7723;52.170;9.978;2023-02-03T00:13:06;11.27;;;6.75;;
15240;SDS011;7723;52.170;9.978;2023-02-03T00:15:34;10.40;;;6.45;;
15240;SDS011;7723;52.170;9.978;2023-02-03T00:18:01;9.68;;;5.90;;
15240;SDS011;7723;52.170;9.978;2023-02-03T00:20:30;11.25;;;6.25;;
15240;SDS011;7723;52.170;9.978;2023-02-03T00:23:01;11.50;;;6.53;;
15240;SDS011;7723;52.170;9.978;2023-02-03T00:25:30;13.82;;;7.60;;
15240;SDS011;7723;52.170;9.978;2023-02-03T00:27:57;12.05;;;6.93;;
15240;SDS011;7723;52.170;9.978;2023-02-03T00:30:24;10.82;;;7.05;;
15240;SDS011;7723;52.170;9.978;2023-02-03T00:32:52;13.80;;;7.50;;
15240;SDS011;7723;52.170;9.978;2023-02-03T00:35:22;14.90;;;7.93;;
15240;SDS011;7723;52.170;9.978;2023-02-03T00:37:51;14.60;;;7.95;;
15240;SDS011;7723;52.170;9.978;2023-02-03T00:40:20;14.32;;;8.68;;
15240;SDS011;7723;52.170;9.978;2023-02-03T00:42:51;14.68;;;8.18;;
15240;SDS011;7723;52.170;9.978;2023-02-03T00:45:19;19.08;;;10.02;;
15240;SDS011;7723;52.170;9.978;2023-02-03T00:47:47;16.95;;;9.13;;
15240;SDS011;7723;52.170;9.978;2023-02-03T00:50:14;16.20;;;9.52;;
15240;SDS011;7723;52.170;9.978;2023-02-03T00:52:42;19.50;;;11.25;;
15240;SDS011;7723;52.170;9.978;2023-02-03T00:55:10;22.33;;;11.32;;
15240;SDS011;7723;52.170;9.978;2023-02-03T00:57:40;18.98;;;11.05;;
15240;SDS011;7723;52.170;9.978;2023-02-03T01:00:08;17.90;;;11.10;;
15240;SDS011;7723;52.170;9.978;2023-02-03T01:02:36;20.33;;;11.88;;
15240;SDS011;7723;52.170;9.978;2023-02-03T01:05:03;21.38;;;11.60;;
15240;SDS011;7723;52.170;9.978;2023-02-03T01:07:31;20.65;;;11.63;;
15240;SDS011;7723;52.170;9.978;2023-02-03T01:09:58;19.58;;;11.15;;
15240;SDS011;7723;52.170;9.978;2023-02-03T01:12:28;18.63;;;11.85;;
15240;SDS011;7723;52.170;9.978;2023-02-03T01:14:56;21.52;;;11.75;;
15240;SDS011;7723;52.170;9.978;2023-02-03T01:17:23;19.75;;;11.93;;
15240;SDS011;7723;52.170;9.978;2023-02-03T01:19:51;22.63;;;11.70;;
15240;SDS011;7723;52.170;9.978;2023-02-03T01:22:18;22.02;;;10.38;;
15240;SDS011;7723;52.170;9.978;2023-02-03T01:24:45;17.30;;;10.73;;
15240;SDS011;7723;52.170;9.978;2023-02-03T01:27:12;21.73;;;11.48;;
15240;SDS011;7723;52.170;9.978;2023-02-03T01:29:41;20.88;;;10.80;;
15240;SDS011;7723;52.170;9.978;2023-02-03T01:32:08;20.88;;;11.65;;
15240;SDS011;7723;52.170;9.978;2023-02-03T01:34:35;15.75;;;9.60;;
15240;SDS011;7723;52.170;9.978;2023-02-03T01:37:03;16.80;;;9.70;;
15240;SDS011;7723;52.170;9.978;2023-02-03T01:39:30;19.27;;;10.52;;
15240;SDS011;7723;52.170;9.978;2023-02-03T01:41:57;17.58;;;9.55;;
15240;SDS011;7723;52.170;9.978;2023-02-03T01:44:37;13.93;;;8.75;;
15240;SDS011;7723;52.170;9.978;2023-02-03T01:47:11;16.60;;;9.50;;
15240;SDS011;7723;52.170;9.978;2023-02-03T01:49:43;15.30;;;9.63;;
15240;SDS011;7723;52.170;9.978;2023-02-03T01:52:14;19.40;;;9.57;;
15240;SDS011;7723;52.170;9.978;2023-02-03T01:54:43;14.73;;;9.55;;
15240;SDS011;7723;52.170;9.978;2023-02-03T01:57:14;14.88;;;9.07;;
15240;SDS011;7723;52.170;9.978;2023-02-03T01:59:45;16.80;;;9.00;;
15240;SDS011;7723;52.170;9.978;2023-02-03T02:02:15;15.95;;;8.50;;
15240;SDS011;7723;52.170;9.978;2023-02-03T02:04:45;16.23;;;9.45;;
15240;SDS011;7723;52.170;9.978;2023-02-03T02:07:19;14.93;;;8.55;;
15240;SDS011;7723;52.170;9.978;2023-02-03T02:09:47;13.70;;;8.35;;
15240;SDS011;7723;52.170;9.978;2023-02-03T02:12:15;13.75;;;9.13;;
15240;SDS011;7723;52.170;9.978;2023-02-03T02:14:42;11.50;;;7.97;;
15240;SDS011;7723;52.170;9.978;2023-02-03T02:17:13;13.15;;;8.52;;
15240;SDS011;7723;52.170;9.978;2023-02-03T02:19:59;11.45;;;7.82;;
15240;SDS011;7723;52.170;9.978;2023-02-03T02:22:48;11.25;;;7.28;;
15240;SDS011;7723;52.170;9.978;2023-02-03T02:25:31;11.90;;;7.68;;
15240;SDS011;7723;52.170;9.978;2023-02-03T02:28:35;15.05;;;7.25;;
15240;SDS011;7723;52.170;9.978;2023-02-03T02:31:33;13.73;;;8.43;;
15240;SDS011;7723;52.170;9.978;2023-02-03T02:34:13;10.40;;;6.68;;
15240;SDS011;7723;52.170;9.978;2023-02-03T02:36:50;14.85;;;8.25;;
15240;SDS011;7723;52.170;9.978;2023-02-03T02:39:31;10.80;;;7.13;;
15240;SDS011;7723;52.170;9.978;2023-02-03T02:42:06;13.32;;;7.78;;
15240;SDS011;7723;52.170;9.978;2023-02-03T02:44:40;10.48;;;6.70;;
15240;SDS011;7723;52.170;9.978;2023-02-03T02:47:15;14.02;;;7.88;;
15240;SDS011;7723;52.170;9.978;2023-02-03T02:49:46;9.90;;;6.18;;
15240;SDS011;7723;52.170;9.978;2023-02-03T02:52:18;11.30;;;6.55;;
15240;SDS011;7723;52.170;9.978;2023-02-03T02:54:50;10.20;;;6.55;;
15240;SDS011;7723;52.170;9.978;2023-02-03T02:57:19;9.80;;;6.40;;
15240;SDS011;7723;52.170;9.978;2023-02-03T02:59:50;8.75;;;5.75;;
15240;SDS011;7723;52.170;9.978;2023-02-03T03:02:18;11.00;;;6.20;;
15240;SDS011;7723;52.170;9.978;2023-02-03T03:04:46;8.75;;;6.40;;
15240;SDS011;7723;52.170;9.978;2023-02-03T03:07:16;14.00;;;7.20;;
15240;SDS011;7723;52.170;9.978;2023-02-03T03:09:47;11.95;;;5.22;;
15240;SDS011;7723;52.170;9.978;2023-02-03T03:12:18;9.23;;;6.07;;
15240;SDS011;7723;52.170;9.978;2023-02-03T03:14:50;12.40;;;6.90;;
15240;SDS011;7723;52.170;9.978;2023-02-03T03:17:23;9.18;;;6.13;;
15240;SDS011;7723;52.170;9.978;2023-02-03T03:19:56;11.55;;;6.20;;
15240;SDS011;7723;52.170;9.978;2023-02-03T03:22:28;7.43;;;5.70;;
15240;SDS011;7723;52.170;9.978;2023-02-03T03:24:59;8.82;;;4.80;;
15240;SDS011;7723;52.170;9.978;2023-02-03T03:27:32;11.98;;;6.10;;
15240;SDS011;7723;52.170;9.978;2023-02-03T03:30:04;13.23;;;6.20;;
15240;SDS011;7723;52.170;9.978;2023-02-03T03:32:36;7.75;;;5.18;;
15240;SDS011;7723;52.170;9.978;2023-02-03T03:35:04;16.80;;;6.35;;
15240;SDS011;7723;52.170;9.978;2023-02-03T03:37:33;8.60;;;5.78;;
15240;SDS011;7723;52.170;9.978;2023-02-03T03:40:06;9.57;;;5.80;;
15240;SDS011;7723;52.170;9.978;2023-02-03T03:42:37;10.55;;;6.20;;
15240;SDS011;7723;52.170;9.978;2023-02-03T03:45:12;10.65;;;6.20;;
15240;SDS011;7723;52.170;9.978;2023-02-03T03:47:48;11.02;;;5.95;;
15240;SDS011;7723;52.170;9.978;2023-02-03T03:50:20;8.73;;;5.82;;
15240;SDS011;7723;52.170;9.978;2023-02-03T03:52:52;10.52;;;5.80;;
15240;SDS011;7723;52.170;9.978;2023-02-03T03:55:22;8.07;;;5.45;;
15240;SDS011;7723;52.170;9.978;2023-02-03T03:57:53;9.68;;;5.97;;
15240;SDS011;7723;52.170;9.978;2023-02-03T04:00:23;10.40;;;5.60;;
15240;SDS011;7723;52.170;9.978;2023-02-03T04:02:55;9.07;;;5.45;;
15240;SDS011;7723;52.170;9.978;2023-02-03T04:05:26;9.65;;;5.60;;
15240;SDS011;7723;52.170;9.978;2023-02-03T04:07:54;10.35;;;5.45;;
15240;SDS011;7723;52.170;9.978;2023-02-03T04:10:23;8.80;;;5.40;;
15240;SDS011;7723;52.170;9.978;2023-02-03T04:12:54;11.02;;;5.93;;
15240;SDS011;7723;52.170;9.978;2023-02-03T04:15:22;8.98;;;5.80;;
15240;SDS011;7723;52.170;9.978;2023-02-03T04:17:49;8.75;;;5.50;;
15240;SDS011;7723;52.170;9.978;2023-02-03T04:20:17;7.43;;;5.25;;
15240;SDS011;7723;52.170;9.978;2023-02-03T04:22:45;9.40;;;5.22;;
15240;SDS011;7723;52.170;9.978;2023-02-03T04:25:13;8.07;;;5.22;;
15240;SDS011;7723;52.170;9.978;2023-02-03T04:27:40;8.23;;;5.25;;
15240;SDS011;7723;52.170;9.978;2023-02-03T04:30:07;12.15;;;5.28;;
15240;SDS011;7723;52.170;9.978;2023-02-03T04:32:35;8.32;;;5.43;;
15240;SDS011;7723;52.170;9.978;2023-02-03T04:35:03;9.80;;;5.13;;
15240;SDS011;7723;52.170;9.978;2023-02-03T04:37:32;7.32;;;5.18;;
15240;SDS011;7723;52.170;9.978;2023-02-03T04:40:00;7.22;;;4.75;;
15240;SDS011;7723;52.170;9.978;2023-02-03T04:42:27;8.88;;;5.13;;
15240;SDS011;7723;52.170;9.978;2023-02-03T04:44:54;9.20;;;5.72;;
15240;SDS011;7723;52.170;9.978;2023-02-03T04:47:21;10.25;;;6.28;;
15240;SDS011;7723;52.170;9.978;2023-02-03T04:49:48;8.23;;;5.82;;
15240;SDS011;7723;52.170;9.978;2023-02-03T04:52:15;6.72;;;4.70;;
15240;SDS011;7723;52.170;9.978;2023-02-03T04:54:44;12.75;;;5.13;;
15240;SDS011;7723;52.170;9.978;2023-02-03T04:57:11;8.43;;;4.60;;
15240;SDS011;7723;52.170;9.978;2023-02-03T04:59:38;11.77;;;5.30;;
15240;SDS011;7723;52.170;9.978;2023-02-03T05:02:05;8.35;;;4.75;;
15240;SDS011;7723;52.170;9.978;2023-02-03T05:04:33;7.82;;;5.40;;
15240;SDS011;7723;52.170;9.978;2023-02-03T05:07:00;6.97;;;4.63;;
15240;SDS011;7723;52.170;9.978;2023-02-03T05:09:27;7.75;;;5.15;;
15240;SDS011;7723;52.170;9.978;2023-02-03T05:11:56;7.85;;;4.40;;
15240;SDS011;7723;52.170;9.978;2023-02-03T05:14:23;11.68;;;5.47;;
15240;SDS011;7723;52.170;9.978;2023-02-03T05:16:50;9.90;;;5.20;;
15240;SDS011;7723;52.170;9.978;2023-02-03T05:19:17;6.78;;;5.03;;
15240;SDS011;7723;52.170;9.978;2023-02-03T05:21:44;6.65;;;4.72;;
15240;SDS011;7723;52.170;9.978;2023-02-03T05:24:12;9.82;;;4.70;;
15240;SDS011;7723;52.170;9.978;2023-02-03T05:26:39;6.20;;;4.45;;
15240;SDS011;7723;52.170;9.978;2023-02-03T05:29:08;7.03;;;4.63;;
15240;SDS011;7723;52.170;9.978;2023-02-03T05:31:36;7.72;;;4.18;;
15240;SDS011;7723;52.170;9.978;2023-02-03T05:34:03;8.25;;;4.60;;
15240;SDS011;7723;52.170;9.978;2023-02-03T05:36:30;7.15;;;4.30;;
15240;SDS011;7723;52.170;9.978;2023-02-03T05:38:57;7.00;;;4.10;;
15240;SDS011;7723;52.170;9.978;2023-02-03T05:41:24;6.07;;;4.13;;
15240;SDS011;7723;52.170;9.978;2023-02-03T05:44:10;6.18;;;3.85;;
15240;SDS011;7723;52.170;9.978;2023-02-03T05:46:37;5.97;;;4.32;;
15240;SDS011;7723;52.170;9.978;2023-02-03T05:49:04;8.73;;;4.43;;
15240;SDS011;7723;52.170;9.978;2023-02-03T05:51:32;8.23;;;4.30;;
15240;SDS011;7723;52.170;9.978;2023-02-03T05:53:59;5.57;;;4.03;;
15240;SDS011;7723;52.170;9.978;2023-02-03T05:56:26;7.53;;;4.45;;
15240;SDS011;7723;52.170;9.978;2023-02-03T05:58:53;9.50;;;4.03;;
15240;SDS011;7723;52.170;9.978;2023-02-03T06:01:22;5.78;;;4.07;;
15240;SDS011;7723;52.170;9.978;2023-02-03T06:03:49;6.28;;;3.55;;
15240;SDS011;7723;52.170;9.978;2023-02-03T06:06:16;6.22;;;3.58;;
15240;SDS011;7723;52.170;9.978;2023-02-03T06:08:44;4.80;;;3.70;;
15240;SDS011;7723;52.170;9.978;2023-02-03T06:11:11;4.55;;;3.63;;
15240;SDS011;7723;52.170;9.978;2023-02-03T06:13:38;4.50;;;3.47;;
15240;SDS011;7723;52.170;9.978;2023-02-03T06:16:05;7.22;;;3.33;;
15240;SDS011;7723;52.170;9.978;2023-02-03T06:18:34;4.80;;;2.97;;
15240;SDS011;7723;52.170;9.978;2023-02-03T06:21:01;7.32;;;3.72;;
15240;SDS011;7723;52.170;9.978;2023-02-03T06:23:28;4.88;;;3.00;;
15240;SDS011;7723;52.170;9.978;2023-02-03T06:25:56;7.82;;;3.40;;
15240;SDS011;7723;52.170;9.978;2023-02-03T06:28:24;4.15;;;3.15;;
15240;SDS011;7723;52.170;9.978;2023-02-03T06:30:52;7.82;;;3.28;;
15240;SDS011;7723;52.170;9.978;2023-02-03T06:33:19;6.53;;;3.60;;
15240;SDS011;7723;52.170;9.978;2023-02-03T06:35:48;6.88;;;3.22;;
15240;SDS011;7723;52.170;9.978;2023-02-03T06:38:15;5.95;;;3.42;;
15240;SDS011;7723;52.170;9.978;2023-02-03T06:40:44;9.93;;;3.30;;
15240;SDS011;7723;52.170;9.978;2023-02-03T06:43:12;6.10;;;3.55;;
15240;SDS011;7723;52.170;9.978;2023-02-03T06:45:39;5.55;;;3.42;;
15240;SDS011;7723;52.170;9.978;2023-02-03T06:48:06;5.57;;;3.58;;
15240;SDS011;7723;52.170;9.978;2023-02-03T06:50:33;8.90;;;2.92;;
15240;SDS011;7723;52.170;9.978;2023-02-03T06:53:02;6.13;;;3.35;;
15240;SDS011;7723;52.170;9.978;2023-02-03T06:55:29;5.35;;;2.67;;
15240;SDS011;7723;52.170;9.978;2023-02-03T06:57:56;5.85;;;3.28;;
15240;SDS011;7723;52.170;9.978;2023-02-03T07:00:23;6.45;;;3.40;;
15240;SDS011;7723;52.170;9.978;2023-02-03T07:02:53;6.18;;;3.08;;
15240;SDS011;7723;52.170;9.978;2023-02-03T07:05:21;4.97;;;3.47;;
15240;SDS011;7723;52.170;9.978;2023-02-03T07:07:49;3.97;;;2.97;;
15240;SDS011;7723;52.170;9.978;2023-02-03T07:10:18;4.88;;;3.35;;
15240;SDS011;7723;52.170;9.978;2023-02-03T07:12:45;5.10;;;2.95;;
15240;SDS011;7723;52.170;9.978;2023-02-03T07:15:14;6.15;;;3.63;;
15240;SDS011;7723;52.170;9.978;2023-02-03T07:17:42;7.70;;;3.25;;
15240;SDS011;7723;52.170;9.978;2023-02-03T07:20:11;5.10;;;2.83;;
15240;SDS011;7723;52.170;9.978;2023-02-03T07:22:38;6.90;;;3.20;;
15240;SDS011;7723;52.170;9.978;2023-02-03T07:25:07;8.02;;;3.35;;
15240;SDS011;7723;52.170;9.978;2023-02-03T07:27:36;4.78;;;3.38;;
15240;SDS011;7723;52.170;9.978;2023-02-03T07:30:03;6.10;;;3.22;;
15240;SDS011;7723;52.170;9.978;2023-02-03T07:32:31;7.28;;;3.35;;
15240;SDS011;7723;52.170;9.978;2023-02-03T07:34:58;5.95;;;3.47;;
15240;SDS011;7723;52.170;9.978;2023-02-03T07:37:26;6.13;;;3.70;;
15240;SDS011;7723;52.170;9.978;2023-02-03T07:39:53;6.15;;;3.50;;
15240;SDS011;7723;52.170;9.978;2023-02-03T07:42:20;4.50;;;2.65;;
15240;SDS011;7723;52.170;9.978;2023-02-03T07:44:49;3.47;;;2.53;;
15240;SDS011;7723;52.170;9.978;2023-02-03T07:47:16;4.45;;;2.60;;
15240;SDS011;7723;52.170;9.978;2023-02-03T07:49:43;3.70;;;2.53;;
15240;SDS011;7723;52.170;9.978;2023-02-03T07:52:10;4.40;;;2.65;;
15240;SDS011;7723;52.170;9.978;2023-02-03T07:54:37;3.20;;;2.03;;
15240;SDS011;7723;52.170;9.978;2023-02-03T07:57:04;4.30;;;2.65;;
15240;SDS011;7723;52.170;9.978;2023-02-03T07:59:31;2.33;;;1.67;;
15240;SDS011;7723;52.170;9.978;2023-02-03T08:02:00;3.53;;;1.92;;
15240;SDS011;7723;52.170;9.978;2023-02-03T08:04:28;3.85;;;2.15;;
15240;SDS011;7723;52.170;9.978;2023-02-03T08:06:55;2.25;;;1.73;;
15240;SDS011;7723;52.170;9.978;2023-02-03T08:09:22;3.00;;;1.90;;
15240;SDS011;7723;52.170;9.978;2023-02-03T08:11:49;3.75;;;1.77;;
15240;SDS011;7723;52.170;9.978;2023-02-03T08:14:16;1.83;;;1.50;;
15240;SDS011;7723;52.170;9.978;2023-02-03T08:16:43;1.38;;;1.27;;
15240;SDS011;7723;52.170;9.978;2023-02-03T08:19:12;2.17;;;1.52;;
15240;SDS011;7723;52.170;9.978;2023-02-03T08:21:39;1.90;;;1.42;;
15240;SDS011;7723;52.170;9.978;2023-02-03T08:24:07;4.00;;;1.63;;
15240;SDS011;7723;52.170;9.978;2023-02-03T08:26:34;2.50;;;1.40;;
15240;SDS011;7723;52.170;9.978;2023-02-03T08:29:01;2.80;;;1.38;;
15240;SDS011;7723;52.170;9.978;2023-02-03T08:31:29;1.80;;;1.50;;
15240;SDS011;7723;52.170;9.978;2023-02-03T08:33:56;2.28;;;1.70;;
15240;SDS011;7723;52.170;9.978;2023-02-03T08:36:25;3.30;;;1.80;;
15240;SDS011;7723;52.170;9.978;2023-02-03T08:38:52;1.52;;;1.20;;
15240;SDS011;7723;52.170;9.978;2023-02-03T08:41:19;5.70;;;1.83;;
15240;SDS011;7723;52.170;9.978;2023-02-03T08:43:46;3.15;;;1.70;;
15240;SDS011;7723;52.170;9.978;2023-02-03T08:46:13;1.63;;;1.30;;
15240;SDS011;7723;52.170;9.978;2023-02-03T08:48:40;2.05;;;1.52;;
15240;SDS011;7723;52.170;9.978;2023-02-03T08:51:08;2.17;;;1.58;;
15240;SDS011;7723;52.170;9.978;2023-02-03T08:53:37;2.90;;;1.77;;
15240;SDS011;7723;52.170;9.978;2023-02-03T08:56:05;3.60;;;1.90;;
15240;SDS011;7723;52.170;9.978;2023-02-03T08:58:32;2.10;;;1.88;;
15240;SDS011;7723;52.170;9.978;2023-02-03T09:01:04;3.55;;;2.03;;
15240;SDS011;7723;52.170;9.978;2023-02-03T09:03:33;4.10;;;2.33;;
15240;SDS011;7723;52.170;9.978;2023-02-03T09:06:00;4.30;;;2.17;;
15240;SDS011;7723;52.170;9.978;2023-02-03T09:08:27;5.10;;;2.38;;
15240;SDS011;7723;52.170;9.978;2023-02-03T09:10:56;3.60;;;2.80;;
15240;SDS011;7723;52.170;9.978;2023-02-03T09:13:23;4.88;;;2.10;;
15240;SDS011;7723;52.170;9.978;2023-02-03T09:15:50;6.28;;;3.03;;
15240;SDS011;7723;52.170;9.978;2023-02-03T09:18:18;2.97;;;2.38;;
15240;SDS011;7723;52.170;9.978;2023-02-03T09:20:47;5.13;;;3.20;;
15240;SDS011;7723;52.170;9.978;2023-02-03T09:23:16;3.80;;;2.70;;
15240;SDS011;7723;52.170;9.978;2023-02-03T09:25:43;5.93;;;3.42;;
15240;SDS011;7723;52.170;9.978;2023-02-03T09:28:11;5.00;;;3.80;;
15240;SDS011;7723;52.170;9.978;2023-02-03T09:30:38;4.88;;;3.20;;
15240;SDS011;7723;52.170;9.978;2023-02-03T09:33:05;5.10;;;3.50;;
15240;SDS011;7723;52.170;9.978;2023-02-03T09:35:36;5.40;;;2.40;;
15240;SDS011;7723;52.170;9.978;2023-02-03T09:38:08;4.88;;;2.90;;
15240;SDS011;7723;52.170;9.978;2023-02-03T09:40:37;6.45;;;3.75;;
15240;SDS011;7723;52.170;9.978;2023-02-03T09:43:12;4.95;;;3.40;;
15240;SDS011;7723;52.170;9.978;2023-02-03T09:45:49;4.50;;;3.20;;
15240;SDS011;7723;52.170;9.978;2023-02-03T09:48:17;7.40;;;3.20;;
15240;SDS011;7723;52.170;9.978;2023-02-03T09:50:48;4.80;;;3.00;;
15240;SDS011;7723;52.170;9.978;2023-02-03T09:53:20;5.45;;;3.08;;
15240;SDS011;7723;52.170;9.978;2023-02-03T09:55:53;5.32;;;3.00;;
15240;SDS011;7723;52.170;9.978;2023-02-03T09:58:22;6.32;;;3.03;;
15240;SDS011;7723;52.170;9.978;2023-02-03T10:00:52;9.07;;;2.80;;
15240;SDS011;7723;52.170;9.978;2023-02-03T10:03:24;8.82;;;3.20;;
15240;SDS011;7723;52.170;9.978;2023-02-03T10:06:01;6.90;;;3.28;;
15240;SDS011;7723;52.170;9.978;2023-02-03T10:08:42;3.45;;;2.67;;
15240;SDS011;7723;52.170;9.978;2023-02-03T10:11:30;7.80;;;2.92;;
15240;SDS011;7723;52.170;9.978;2023-02-03T10:14:19;5.75;;;2.17;;
15240;SDS011;7723;52.170;9.978;2023-02-03T10:16:57;4.53;;;1.70;;
15240;SDS011;7723;52.170;9.978;2023-02-03T10:19:36;3.40;;;1.90;;
15240;SDS011;7723;52.170;9.978;2023-02-03T10:22:09;3.75;;;1.60;;
15240;SDS011;7723;52.170;9.978;2023-02-03T10:24:42;7.93;;;1.80;;
15240;SDS011;7723;52.170;9.978;2023-02-03T10:27:16;5.78;;;2.50;;
15240;SDS011;7723;52.170;9.978;2023-02-03T10:29:47;4.57;;;1.42;;
15240;SDS011;7723;52.170;9.978;2023-02-03T10:32:22;3.60;;;1.00;;
15240;SDS011;7723;52.170;9.978;2023-02-03T10:34:51;4.30;;;1.45;;
15240;SDS011;7723;52.170;9.978;2023-02-03T10:37:22;4.55;;;2.35;;
15240;SDS011;7723;52.170;9.978;2023-02-03T10:39:53;4.30;;;1.20;;
15240;SDS011;7723;52.170;9.978;2023-02-03T10:42:22;2.90;;;1.27;;
15240;SDS011;7723;52.170;9.978;2023-02-03T10:44:51;2.53;;;1.00;;
15240;SDS011;7723;52.170;9.978;2023-02-03T10:47:24;3.30;;;1.05;;
15240;SDS011;7723;52.170;9.978;2023-02-03T10:49:59;5.55;;;1.50;;
15240;SDS011;7723;52.170;9.978;2023-02-03T10:52:29;3.17;;;1.33;;
15240;SDS011;7723;52.170;9.978;2023-02-03T10:54:58;3.05;;;0.80;;
15240;SDS011;7723;52.170;9.978;2023-02-03T10:57:29;4.72;;;0.82;;
15240;SDS011;7723;52.170;9.978;2023-02-03T11:00:06;3.45;;;1.00;;
15240;SDS011;7723;52.170;9.978;2023-02-03T11:02:53;2.28;;;0.82;;
15240;SDS011;7723;52.170;9.978;2023-02-03T11:05:22;3.97;;;1.33;;
15240;SDS011;7723;52.170;9.978;2023-02-03T11:07:53;2.25;;;0.90;;
15240;SDS011;7723;52.170;9.978;2023-02-03T11:10:31;1.55;;;0.80;;
15240;SDS011;7723;52.170;9.978;2023-02-03T11:13:15;4.60;;;1.08;;
15240;SDS011;7723;52.170;9.978;2023-02-03T11:15:51;5.18;;;1.10;;
15240;SDS011;7723;52.170;9.978;2023-02-03T11:18:24;2.33;;;1.35;;
15240;SDS011;7723;52.170;9.978;2023-02-03T11:20:58;3.55;;;1.00;;
15240;SDS011;7723;52.170;9.978;2023-02-03T11:23:25;3.63;;;0.85;;
15240;SDS011;7723;52.170;9.978;2023-02-03T11:25:52;2.15;;;0.98;;
15240;SDS011;7723;52.170;9.978;2023-02-03T11:28:26;3.90;;;1.50;;
15240;SDS011;7723;52.170;9.978;2023-02-03T11:30:56;3.83;;;1.40;;
15240;SDS011;7723;52.170;9.978;2023-02-03T11:33:24;6.57;;;1.35;;
15240;SDS011;7723;52.170;9.978;2023-02-03T11:35:54;4.47;;;1.58;;
15240;SDS011;7723;52.170;9.978;2023-02-03T11:38:29;7.43;;;1.30;;
15240;SDS011;7723;52.170;9.978;2023-02-03T11:41:00;5.85;;;1.40;;
15240;SDS011;7723;52.170;9.978;2023-02-03T11:43:28;4.38;;;1.45;;
15240;SDS011;7723;52.170;9.978;2023-02-03T11:46:00;6.25;;;1.42;;
15240;SDS011;7723;52.170;9.978;2023-02-03T11:48:34;8.07;;;1.95;;
15240;SDS011;7723;52.170;9.978;2023-02-03T11:51:03;6.82;;;1.48;;
15240;SDS011;7723;52.170;9.978;2023-02-03T11:53:44;12.57;;;2.53;;
15240;SDS011;7723;52.170;9.978;2023-02-03T11:56:25;6.38;;;1.88;;
15240;SDS011;7723;52.170;9.978;2023-02-03T11:59:01;6.55;;;1.55;;
15240;SDS011;7723;52.170;9.978;2023-02-03T12:01:58;7.43;;;1.85;;
15240;SDS011;7723;52.170;9.978;2023-02-03T12:04:56;6.78;;;1.83;;
15240;SDS011;7723;52.170;9.978;2023-02-03T12:07:47;7.25;;;2.13;;
15240;SDS011;7723;52.170;9.978;2023-02-03T12:10:27;5.05;;;1.75;;
15240;SDS011;7723;52.170;9.978;2023-02-03T12:13:06;8.23;;;1.77;;
15240;SDS011;7723;52.170;9.978;2023-02-03T12:15:49;4.97;;;1.70;;
15240;SDS011;7723;52.170;9.978;2023-02-03T12:18:29;8.50;;;1.63;;
15240;SDS011;7723;52.170;9.978;2023-02-03T12:21:09;8.73;;;2.30;;
15240;SDS011;7723;52.170;9.978;2023-02-03T12:23:57;5.18;;;2.60;;
15240;SDS011;7723;52.170;9.978;2023-02-03T12:26:32;5.80;;;2.10;;
15240;SDS011;7723;52.170;9.978;2023-02-03T12:29:03;8.30;;;2.10;;
15240;SDS011;7723;52.170;9.978;2023-02-03T12:31:36;6.45;;;1.83;;
15240;SDS011;7723;52.170;9.978;2023-02-03T12:34:11;9.55;;;2.90;;
15240;SDS011;7723;52.170;9.978;2023-02-03T12:36:44;10.45;;;3.33;;
15240;SDS011;7723;52.170;9.978;2023-02-03T12:39:14;10.55;;;2.78;;
15240;SDS011;7723;52.170;9.978;2023-02-03T12:41:48;9.30;;;2.00;;
15240;SDS011;7723;52.170;9.978;2023-02-03T12:44:21;12.25;;;2.40;;
15240;SDS011;7723;52.170;9.978;2023-02-03T12:46:52;11.35;;;2.38;;
15240;SDS011;7723;52.170;9.978;2023-02-03T12:49:33;7.32;;;2.33;;
15240;SDS011;7723;52.170;9.978;2023-02-03T12:52:07;8.77;;;2.08;;
15240;SDS011;7723;52.170;9.978;2023-02-03T12:54:43;9.27;;;1.70;;
15240;SDS011;7723;52.170;9.978;2023-02-03T12:57:17;6.18;;;1.48;;
15240;SDS011;7723;52.170;9.978;2023-02-03T12:59:56;10.70;;;1.80;;
15240;SDS011;7723;52.170;9.978;2023-02-03T13:02:31;9.23;;;3.13;;
15240;SDS011;7723;52.170;9.978;2023-02-03T13:05:04;11.20;;;2.92;;
15240;SDS011;7723;52.170;9.978;2023-02-03T13:07:40;8.20;;;2.20;;
15240;SDS011;7723;52.170;9.978;2023-02-03T13:10:14;7.97;;;2.00;;
15240;SDS011;7723;52.170;9.978;2023-02-03T13:12:48;7.75;;;1.90;;
15240;SDS011;7723;52.170;9.978;2023-02-03T13:15:23;10.27;;;2.13;;
15240;SDS011;7723;52.170;9.978;2023-02-03T13:17:54;11.32;;;2.47;;
15240;SDS011;7723;52.170;9.978;2023-02-03T13:20:27;13.13;;;2.83;;
15240;SDS011;7723;52.170;9.978;2023-02-03T13:22:58;6.18;;;2.08;;
15240;SDS011;7723;52.170;9.978;2023-02-03T13:25:29;12.18;;;2.35;;
15240;SDS011;7723;52.170;9.978;2023-02-03T13:28:08;12.27;;;3.33;;
15240;SDS011;7723;52.170;9.978;2023-02-03T13:30:49;3.50;;;1.52;;
15240;SDS011;7723;52.170;9.978;2023-02-03T13:33:37;7.85;;;2.25;;
15240;SDS011;7723;52.170;9.978;2023-02-03T13:36:23;10.80;;;2.28;;
15240;SDS011;7723;52.170;9.978;2023-02-03T13:39:16;12.25;;;2.40;;
15240;SDS011;7723;52.170;9.978;2023-02-03T13:41:55;7.60;;;1.90;;
15240;SDS011;7723;52.170;9.978;2023-02-03T13:44:38;7.50;;;2.13;;
15240;SDS011;7723;52.170;9.978;2023-02-03T13:47:12;6.82;;;2.53;;
15240;SDS011;7723;52.170;9.978;2023-02-03T13:49:41;6.00;;;1.92;;
15240;SDS011;7723;52.170;9.978;2023-02-03T13:52:23;7.32;;;2.33;;
15240;SDS011;7723;52.170;9.978;2023-02-03T13:54:53;6.80;;;2.45;;
15240;SDS011;7723;52.170;9.978;2023-02-03T13:57:23;7.22;;;1.80;;
15240;SDS011;7723;52.170;9.978;2023-02-03T13:59:58;6.45;;;1.63;;
15240;SDS011;7723;52.170;9.978;2023-02-03T14:02:43;7.78;;;2.15;;
15240;SDS011;7723;52.170;9.978;2023-02-03T14:11:43;8.10;;;2.38;;
15240;SDS011;7723;52.170;9.978;2023-02-03T14:23:13;6.88;;;1.83;;
15240;SDS011;7723;52.170;9.978;2023-02-03T14:25:48;9.02;;;2.03;;
15240;SDS011;7723;52.170;9.978;2023-02-03T14:28:20;11.10;;;2.67;;
15240;SDS011;7723;52.170;9.978;2023-02-03T14:31:04;8.07;;;1.73;;
15240;SDS011;7723;52.170;9.978;2023-02-03T14:33:52;5.53;;;1.80;;
15240;SDS011;7723;52.170;9.978;2023-02-03T14:36:40;5.40;;;1.50;;
15240;SDS011;7723;52.170;9.978;2023-02-03T14:42:10;7.47;;;2.40;;
15240;SDS011;7723;52.170;9.978;2023-02-03T14:44:44;9.57;;;1.85;;
15240;SDS011;7723;52.170;9.978;2023-02-03T14:47:25;9.75;;;2.20;;
15240;SDS011;7723;52.170;9.978;2023-02-03T14:50:16;6.30;;;1.70;;
15240;SDS011;7723;52.170;9.978;2023-02-03T14:52:55;6.57;;;1.50;;
15240;SDS011;7723;52.170;9.978;2023-02-03T14:55:34;5.20;;;1.83;;
15240;SDS011;7723;52.170;9.978;2023-02-03T14:58:18;8.07;;;2.15;;
15240;SDS011;7723;52.170;9.978;2023-02-03T15:00:51;8.75;;;2.17;;
15240;SDS011;7723;52.170;9.978;2023-02-03T15:03:26;8.35;;;1.98;;
15240;SDS011;7723;52.170;9.978;2023-02-03T15:05:56;7.72;;;1.48;;
15240;SDS011;7723;52.170;9.978;2023-02-03T15:08:29;10.00;;;2.22;;
15240;SDS011;7723;52.170;9.978;2023-02-03T15:11:00;6.53;;;1.73;;
15240;SDS011;7723;52.170;9.978;2023-02-03T15:13:50;5.38;;;1.98;;
15240;SDS011;7723;52.170;9.978;2023-02-03T15:16:19;6.93;;;2.13;;
15240;SDS011;7723;52.170;9.978;2023-02-03T15:18:52;9.10;;;2.08;;
15240;SDS011;7723;52.170;9.978;2023-02-03T15:21:21;9.38;;;1.98;;
15240;SDS011;7723;52.170;9.978;2023-02-03T15:23:49;17.00;;;2.90;;
15240;SDS011;7723;52.170;9.978;2023-02-03T15:26:17;11.43;;;3.13;;
15240;SDS011;7723;52.170;9.978;2023-02-03T15:28:55;10.73;;;2.33;;
15240;SDS011;7723;52.170;9.978;2023-02-03T15:31:25;11.07;;;3.50;;
15240;SDS011;7723;52.170;9.978;2023-02-03T15:33:59;8.23;;;2.50;;
15240;SDS011;7723;52.170;9.978;2023-02-03T15:36:31;11.60;;;2.58;;
15240;SDS011;7723;52.170;9.978;2023-02-03T15:39:09;8.35;;;1.98;;
15240;SDS011;7723;52.170;9.978;2023-02-03T15:41:41;10.10;;;1.98;;